createdAt,value
2023-03-27T00:01:00.178Z,6.30
2023-03-27T00:03:28.841Z,9.10
2023-03-27T00:06:00.663Z,5.63
2023-03-27T00:08:28.353Z,5.37
2023-03-27T00:10:56.215Z,11.17
2023-03-27T00:13:24.131Z,4.87
2023-03-27T00:15:53.904Z,4.67
2023-03-27T00:18:23.241Z,4.40
2023-03-27T00:20:51.737Z,7.53
2023-03-27T00:23:20.010Z,8.57
2023-03-27T00:25:48.714Z,9.70
2023-03-27T00:28:16.406Z,5.50
2023-03-27T00:30:44.368Z,7.60
2023-03-27T00:33:12.528Z,7.83
2023-03-27T00:35:45.473Z,5.53
2023-03-27T00:38:12.982Z,10.57
2023-03-27T00:40:40.658Z,7.27
2023-03-27T00:43:21.502Z,9.00
2023-03-27T00:45:49.327Z,6.37
2023-03-27T00:48:17.097Z,7.70
2023-03-27T00:50:46.739Z,7.97
2023-03-27T00:53:16.591Z,5.00
2023-03-27T00:55:46.060Z,4.23
2023-03-27T00:58:16.762Z,4.80
2023-03-27T01:00:44.257Z,8.23
2023-03-27T01:03:12.361Z,5.90
2023-03-27T01:05:39.969Z,11.20
2023-03-27T01:08:08.893Z,7.87
2023-03-27T01:10:41.744Z,9.93
2023-03-27T01:13:15.031Z,7.37
2023-03-27T01:15:45.910Z,7.13
2023-03-27T01:18:20.846Z,6.33
2023-03-27T01:21:13.649Z,7.33
2023-03-27T01:23:58.997Z,11.90
2023-03-27T01:26:41.716Z,5.03
2023-03-27T01:29:11.492Z,7.77
2023-03-27T01:31:45.138Z,6.70
2023-03-27T01:34:26.462Z,5.57
2023-03-27T01:37:06.154Z,9.97
2023-03-27T01:39:36.801Z,5.40
2023-03-27T01:42:06.616Z,6.00
2023-03-27T01:44:43.577Z,12.53
2023-03-27T01:47:17.541Z,7.83
2023-03-27T01:49:47.116Z,7.13
2023-03-27T01:52:16.025Z,7.23
2023-03-27T01:54:46.593Z,5.73
2023-03-27T01:57:17.609Z,7.30
2023-03-27T01:59:46.969Z,5.60
2023-03-27T02:02:17.353Z,8.17
2023-03-27T02:04:46.789Z,12.27
2023-03-27T02:07:18.809Z,5.27
2023-03-27T02:09:50.307Z,3.57
2023-03-27T02:12:20.143Z,11.07
2023-03-27T02:14:51.582Z,10.37
2023-03-27T02:17:20.465Z,5.67
2023-03-27T02:19:53.068Z,7.07
2023-03-27T02:22:20.553Z,5.10
2023-03-27T02:25:20.298Z,8.00
2023-03-27T02:27:51.109Z,5.20
2023-03-27T02:30:24.075Z,5.50
2023-03-27T02:32:58.579Z,7.77
2023-03-27T02:35:32.348Z,8.20
2023-03-27T02:38:06.094Z,6.30
2023-03-27T02:40:39.886Z,4.10
2023-03-27T02:43:13.626Z,10.97
2023-03-27T02:45:53.176Z,14.03
2023-03-27T02:48:23.990Z,4.83
2023-03-27T02:50:53.455Z,8.13
2023-03-27T02:53:23.762Z,9.00
2023-03-27T02:55:54.095Z,5.13
2023-03-27T02:58:27.044Z,10.90
2023-03-27T03:00:55.485Z,4.30
2023-03-27T03:03:28.126Z,7.87
2023-03-27T03:05:55.877Z,9.83
2023-03-27T03:08:23.829Z,6.23
2023-03-27T03:10:51.621Z,12.30
2023-03-27T03:13:19.318Z,8.47
2023-03-27T03:15:50.490Z,8.23
2023-03-27T03:18:18.418Z,9.43
2023-03-27T03:20:46.055Z,6.60
2023-03-27T03:23:13.568Z,12.07
2023-03-27T03:25:41.455Z,12.63
2023-03-27T03:28:10.619Z,4.63
2023-03-27T03:30:41.982Z,11.70
2023-03-27T03:33:10.960Z,5.87
2023-03-27T03:35:39.023Z,7.67
2023-03-27T03:38:06.816Z,10.13
2023-03-27T03:40:34.265Z,7.80
2023-03-27T03:43:01.775Z,6.63
2023-03-27T03:45:29.379Z,5.63
2023-03-27T03:47:56.900Z,7.97
2023-03-27T03:50:25.834Z,5.37
2023-03-27T03:52:53.419Z,4.60
2023-03-27T03:55:20.890Z,3.70
2023-03-27T03:57:48.480Z,8.90
2023-03-27T04:00:18.759Z,6.53
2023-03-27T04:02:46.408Z,5.77
2023-03-27T04:05:13.927Z,8.27
2023-03-27T04:07:42.798Z,8.77
2023-03-27T04:10:10.729Z,7.30
2023-03-27T04:12:38.244Z,5.90
2023-03-27T04:15:06.624Z,6.40
2023-03-27T04:17:34.432Z,9.13
2023-03-27T04:20:02.206Z,6.97
2023-03-27T04:22:29.805Z,5.70
2023-03-27T04:24:58.740Z,5.10
2023-03-27T04:27:30.429Z,5.67
2023-03-27T04:29:57.930Z,7.07
2023-03-27T04:32:26.318Z,5.30
2023-03-27T04:34:54.511Z,5.67
2023-03-27T04:37:23.408Z,6.27
2023-03-27T04:39:52.490Z,6.63
2023-03-27T04:42:23.637Z,7.80
2023-03-27T04:44:52.446Z,6.93
2023-03-27T04:47:20.804Z,11.00
2023-03-27T04:49:50.793Z,23.00
2023-03-27T04:52:18.874Z,25.23
2023-03-27T04:54:46.730Z,41.67
2023-03-27T04:57:15.684Z,36.37
2023-03-27T04:59:44.558Z,50.90
2023-03-27T05:02:12.973Z,36.97
2023-03-27T05:04:40.469Z,27.10
2023-03-27T05:07:08.044Z,20.53
2023-03-27T05:09:35.462Z,12.57
2023-03-27T05:12:03.316Z,14.97
2023-03-27T05:14:30.839Z,6.83
2023-03-27T05:17:00.837Z,5.77
2023-03-27T05:19:28.378Z,13.10
2023-03-27T05:21:55.968Z,6.10
2023-03-27T05:24:23.622Z,4.03
2023-03-27T05:26:51.322Z,7.00
2023-03-27T05:29:18.916Z,7.40
2023-03-27T05:31:46.440Z,8.50
2023-03-27T05:34:15.333Z,5.47
2023-03-27T05:36:42.828Z,9.63
2023-03-27T05:39:10.314Z,7.50
2023-03-27T05:41:38.178Z,8.47
2023-03-27T05:44:05.978Z,11.70
2023-03-27T05:46:33.506Z,8.97
2023-03-27T05:49:01.384Z,3.50
2023-03-27T05:51:31.518Z,5.60
2023-03-27T05:53:59.170Z,10.43
2023-03-27T05:56:26.979Z,6.73
2023-03-27T05:58:54.646Z,5.70
2023-03-27T06:01:23.547Z,6.47
2023-03-27T06:03:55.513Z,4.97
2023-03-27T06:06:23.074Z,10.00
2023-03-27T06:08:51.985Z,9.13
2023-03-27T06:11:19.485Z,5.17
2023-03-27T06:13:46.972Z,7.77
2023-03-27T06:16:15.031Z,4.90
2023-03-27T06:18:42.655Z,4.40
2023-03-27T06:21:10.345Z,5.30
2023-03-27T06:23:37.909Z,7.27
2023-03-27T06:26:07.441Z,7.97
2023-03-27T06:28:35.089Z,6.10
2023-03-27T06:31:03.347Z,10.13
2023-03-27T06:33:30.845Z,6.20
2023-03-27T06:36:00.807Z,7.90
2023-03-27T06:38:29.567Z,7.73
2023-03-27T06:40:57.201Z,5.80
2023-03-27T06:43:26.561Z,8.90
2023-03-27T06:45:54.058Z,13.67
2023-03-27T06:48:23.925Z,5.60
2023-03-27T06:50:52.302Z,12.93
2023-03-27T06:53:27.104Z,4.13
2023-03-27T06:55:55.399Z,7.90
2023-03-27T06:58:22.997Z,8.10
2023-03-27T07:00:52.203Z,7.23
2023-03-27T07:03:20.669Z,6.23
2023-03-27T07:05:49.103Z,11.53
2023-03-27T07:08:24.497Z,14.00
2023-03-27T07:11:03.843Z,8.97
2023-03-27T07:13:38.408Z,9.27
2023-03-27T07:16:08.152Z,11.00
2023-03-27T07:18:36.139Z,8.87
2023-03-27T07:21:03.743Z,7.57
2023-03-27T07:23:31.584Z,5.43
2023-03-27T07:25:59.652Z,11.07
2023-03-27T07:28:27.698Z,5.10
2023-03-27T07:30:55.543Z,10.57
2023-03-27T07:33:24.741Z,8.10
2023-03-27T07:35:52.401Z,7.23
2023-03-27T07:38:19.968Z,5.70
2023-03-27T07:40:47.466Z,10.60
2023-03-27T07:43:14.968Z,14.23
2023-03-27T07:45:42.589Z,4.30
2023-03-27T07:48:11.819Z,10.07
2023-03-27T07:50:40.745Z,6.90
2023-03-27T07:53:08.270Z,7.90
2023-03-27T07:55:37.894Z,7.53
2023-03-27T07:58:06.931Z,5.43
2023-03-27T08:00:35.903Z,4.27
2023-03-27T08:03:07.792Z,5.53
2023-03-27T08:05:35.636Z,5.87
2023-03-27T08:08:04.867Z,10.27
2023-03-27T08:10:32.767Z,5.60
2023-03-27T08:13:00.971Z,4.63
2023-03-27T08:15:28.632Z,4.63
2023-03-27T08:17:56.824Z,4.77
2023-03-27T08:20:24.825Z,4.00
2023-03-27T08:22:52.664Z,5.00
2023-03-27T08:25:22.589Z,2.87
2023-03-27T08:27:51.069Z,6.57
2023-03-27T08:30:20.231Z,3.57
2023-03-27T08:32:47.723Z,3.60
2023-03-27T08:35:15.244Z,3.43
2023-03-27T08:37:43.973Z,4.87
2023-03-27T08:40:17.706Z,3.73
2023-03-27T08:42:47.577Z,4.77
2023-03-27T08:45:19.003Z,3.03
2023-03-27T08:47:50.146Z,1.67
2023-03-27T08:50:22.417Z,3.23
2023-03-27T08:52:51.029Z,3.33
2023-03-27T08:55:19.739Z,4.13
2023-03-27T08:57:50.277Z,17.27
2023-03-27T09:00:22.011Z,3.03
2023-03-27T09:02:51.998Z,3.40
2023-03-27T09:05:20.823Z,1.43
2023-03-27T09:07:55.501Z,3.57
2023-03-27T09:10:27.186Z,1.10
2023-03-27T09:13:00.474Z,2.10
2023-03-27T09:15:30.060Z,6.00
2023-03-27T09:17:59.910Z,3.33
2023-03-27T09:20:32.127Z,1.53
2023-03-27T09:23:03.943Z,3.13
2023-03-27T09:25:33.651Z,3.27
2023-03-27T09:28:03.423Z,3.33
2023-03-27T09:30:31.895Z,3.37
2023-03-27T09:33:00.765Z,8.37
2023-03-27T09:35:28.300Z,3.30
2023-03-27T09:37:58.428Z,3.90
2023-03-27T09:40:30.801Z,4.00
2023-03-27T09:43:09.224Z,3.07
2023-03-27T09:45:40.861Z,1.17
2023-03-27T09:48:13.181Z,2.40
2023-03-27T09:50:44.482Z,2.00
2023-03-27T09:53:13.107Z,3.53
2023-03-27T09:55:52.823Z,2.67
2023-03-27T09:58:25.432Z,4.77
2023-03-27T10:01:08.485Z,2.90
2023-03-27T10:03:40.381Z,2.00
2023-03-27T10:06:08.649Z,2.30
2023-03-27T10:08:38.837Z,6.43
2023-03-27T10:11:07.884Z,5.20
2023-03-27T10:13:36.461Z,3.90
2023-03-27T10:16:05.998Z,2.10
2023-03-27T10:18:36.441Z,8.27
2023-03-27T10:21:10.191Z,1.70
2023-03-27T10:23:42.024Z,3.03
2023-03-27T10:26:10.103Z,4.80
2023-03-27T10:28:38.951Z,1.63
2023-03-27T10:31:08.408Z,3.30
2023-03-27T10:33:38.239Z,5.37
2023-03-27T10:36:07.705Z,6.50
2023-03-27T10:38:36.571Z,3.97
2023-03-27T10:41:05.156Z,3.97
2023-03-27T10:43:35.209Z,3.27
2023-03-27T10:46:05.078Z,1.90
2023-03-27T10:48:37.681Z,2.13
2023-03-27T10:51:07.671Z,6.57
2023-03-27T10:53:38.786Z,2.20
2023-03-27T10:56:10.723Z,4.20
2023-03-27T10:58:43.176Z,6.97
2023-03-27T11:01:13.064Z,3.93
2023-03-27T11:03:43.552Z,4.60
2023-03-27T11:06:15.276Z,2.90
2023-03-27T11:08:49.264Z,1.60
2023-03-27T11:11:18.899Z,3.30
2023-03-27T11:13:47.748Z,3.03
2023-03-27T11:16:17.706Z,4.90
2023-03-27T11:18:49.149Z,2.80
2023-03-27T11:21:20.779Z,1.47
2023-03-27T11:23:50.314Z,2.07
2023-03-27T11:26:19.034Z,2.13
2023-03-27T11:28:47.548Z,2.80
2023-03-27T11:31:21.199Z,1.47
2023-03-27T11:33:51.493Z,3.07
2023-03-27T11:36:29.578Z,5.83
2023-03-27T11:39:01.581Z,3.43
2023-03-27T11:41:29.055Z,5.57
2023-03-27T11:43:56.603Z,4.00
2023-03-27T11:46:30.318Z,6.70
2023-03-27T11:49:06.059Z,3.30
2023-03-27T11:51:41.709Z,1.33
2023-03-27T11:54:24.299Z,1.87
2023-03-27T11:56:54.584Z,9.00
2023-03-27T11:59:36.983Z,7.60
2023-03-27T12:02:11.631Z,2.40
2023-03-27T12:04:44.697Z,2.37
2023-03-27T12:07:33.807Z,6.93
2023-03-27T12:10:12.802Z,4.30
2023-03-27T12:12:48.661Z,14.47
2023-03-27T12:15:23.974Z,1.60
2023-03-27T12:17:54.902Z,2.93
2023-03-27T12:20:31.797Z,3.67
2023-03-27T12:23:05.043Z,1.50
2023-03-27T12:25:45.279Z,1.63
2023-03-27T12:28:22.598Z,2.77
2023-03-27T12:30:53.297Z,2.37
2023-03-27T12:33:29.449Z,2.30
2023-03-27T12:35:58.254Z,1.47
2023-03-27T12:38:28.991Z,1.27
2023-03-27T12:41:02.809Z,1.90
2023-03-27T12:43:31.564Z,2.83
2023-03-27T12:46:10.929Z,2.10
2023-03-27T12:48:47.323Z,1.63
2023-03-27T12:51:16.777Z,2.03
2023-03-27T12:53:50.283Z,1.40
2023-03-27T12:56:30.720Z,1.47
2023-03-27T12:58:58.419Z,1.43
2023-03-27T13:01:41.989Z,1.33
2023-03-27T13:04:26.510Z,1.43
2023-03-27T13:06:57.036Z,1.83
2023-03-27T13:09:33.020Z,1.60
2023-03-27T13:12:19.352Z,1.30
2023-03-27T13:14:56.991Z,2.60
2023-03-27T13:17:36.155Z,0.90
2023-03-27T13:20:12.343Z,1.00
2023-03-27T13:22:46.969Z,2.20
2023-03-27T13:25:21.780Z,0.80
2023-03-27T13:27:53.331Z,1.60
2023-03-27T13:30:38.724Z,1.27
2023-03-27T13:33:11.023Z,0.90
2023-03-27T13:35:41.280Z,1.90
2023-03-27T13:38:16.456Z,0.80
2023-03-27T13:40:49.639Z,0.70
2023-03-27T13:43:23.304Z,1.00
2023-03-27T13:45:52.732Z,1.47
2023-03-27T13:48:35.477Z,0.70
2023-03-27T13:51:13.133Z,0.80
2023-03-27T13:53:47.257Z,0.70
2023-03-27T13:56:24.955Z,0.70
2023-03-27T13:59:21.627Z,0.70
2023-03-27T14:01:55.864Z,1.57
2023-03-27T14:04:34.850Z,0.80
2023-03-27T14:07:12.770Z,2.20
2023-03-27T14:09:46.436Z,1.80
2023-03-27T14:12:20.519Z,4.23
2023-03-27T14:14:53.794Z,1.63
2023-03-27T14:17:33.655Z,1.00
2023-03-27T14:20:11.420Z,3.13
2023-03-27T14:22:41.186Z,2.37
2023-03-27T14:25:12.477Z,1.70
2023-03-27T14:27:43.228Z,2.00
2023-03-27T14:30:15.770Z,2.40
2023-03-27T14:32:43.986Z,2.63
2023-03-27T14:35:29.829Z,3.43
2023-03-27T14:38:00.078Z,3.63
2023-03-27T14:40:29.670Z,1.47
2023-03-27T14:42:59.730Z,1.40
2023-03-27T14:45:30.094Z,1.53
2023-03-27T14:47:59.490Z,2.00
2023-03-27T14:50:27.815Z,1.80
2023-03-27T14:52:56.239Z,2.30
2023-03-27T14:55:26.278Z,1.50
2023-03-27T14:57:57.018Z,1.53
2023-03-27T15:00:26.805Z,3.90
2023-03-27T15:02:55.221Z,1.70
2023-03-27T15:05:23.212Z,2.07
2023-03-27T15:07:52.033Z,1.67
2023-03-27T15:10:24.650Z,1.87
2023-03-27T15:12:52.204Z,1.50
2023-03-27T15:15:23.634Z,1.30
2023-03-27T15:17:55.173Z,1.37
2023-03-27T15:20:24.767Z,1.63
2023-03-27T15:22:54.349Z,1.10
2023-03-27T15:25:27.551Z,1.67
2023-03-27T15:27:57.594Z,1.30
2023-03-27T15:30:27.214Z,3.33
2023-03-27T15:33:01.670Z,1.43
2023-03-27T15:35:31.193Z,8.57
2023-03-27T15:37:59.248Z,2.10
2023-03-27T15:40:36.607Z,1.30
2023-03-27T15:43:07.269Z,2.70
2023-03-27T15:45:40.232Z,1.30
2023-03-27T15:48:17.658Z,1.33
2023-03-27T15:50:54.948Z,2.40
2023-03-27T15:53:31.124Z,2.70
2023-03-27T15:55:59.281Z,1.63
2023-03-27T15:58:28.339Z,1.67
2023-03-27T16:01:00.005Z,0.80
2023-03-27T16:03:31.165Z,3.60
2023-03-27T16:05:59.544Z,0.83
2023-03-27T16:08:29.934Z,1.33
2023-03-27T16:10:58.456Z,1.77
2023-03-27T16:13:27.430Z,1.10
2023-03-27T16:15:59.405Z,0.80
2023-03-27T16:18:29.174Z,1.00
2023-03-27T16:21:05.458Z,1.43
2023-03-27T16:23:33.041Z,1.00
2023-03-27T16:26:01.121Z,1.10
2023-03-27T16:28:29.826Z,1.33
2023-03-27T16:30:58.179Z,2.27
2023-03-27T16:33:27.449Z,1.07
2023-03-27T16:35:55.359Z,1.10
2023-03-27T16:38:24.221Z,2.60
2023-03-27T16:40:51.740Z,0.80
2023-03-27T16:43:19.222Z,1.10
2023-03-27T16:45:47.246Z,2.93
2023-03-27T16:48:14.767Z,1.00
2023-03-27T16:50:42.305Z,1.20
2023-03-27T16:53:10.161Z,1.53
2023-03-27T16:55:39.156Z,1.50
2023-03-27T16:58:06.614Z,1.77
2023-03-27T17:00:34.171Z,1.10
2023-03-27T17:03:01.719Z,1.17
2023-03-27T17:05:34.012Z,2.93
2023-03-27T17:08:01.657Z,1.43
2023-03-27T17:10:30.423Z,1.90
2023-03-27T17:12:59.215Z,1.50
2023-03-27T17:15:26.790Z,1.63
2023-03-27T17:17:54.477Z,2.67
2023-03-27T17:20:22.010Z,2.20
2023-03-27T17:22:49.476Z,5.07
2023-03-27T17:25:17.666Z,3.30
2023-03-27T17:27:45.434Z,2.40
2023-03-27T17:30:21.424Z,2.70
2023-03-27T17:32:54.676Z,3.45
2023-03-27T17:35:22.270Z,8.00
2023-03-27T17:37:49.735Z,1.87
2023-03-27T17:40:17.873Z,1.90
2023-03-27T17:42:45.354Z,2.47
2023-03-27T17:45:14.325Z,4.53
2023-03-27T17:47:41.939Z,2.00
2023-03-27T17:50:09.798Z,2.50
2023-03-27T17:52:37.297Z,5.33
2023-03-27T17:55:04.985Z,6.60
2023-03-27T17:57:32.961Z,5.87
2023-03-27T18:00:00.515Z,2.90
2023-03-27T18:02:29.531Z,3.47
2023-03-27T18:04:57.132Z,1.60
2023-03-27T18:07:24.591Z,1.60
2023-03-27T18:09:52.744Z,3.20
2023-03-27T18:12:21.215Z,1.60
2023-03-27T18:14:49.652Z,5.43
2023-03-27T18:17:20.845Z,2.20
2023-03-27T18:19:49.933Z,3.03
2023-03-27T18:22:17.677Z,3.13
2023-03-27T18:24:45.230Z,2.30
2023-03-27T18:27:12.966Z,8.70
2023-03-27T18:29:40.504Z,2.93
2023-03-27T18:32:08.018Z,4.07
2023-03-27T18:34:35.512Z,2.70
2023-03-27T18:37:04.342Z,2.10
2023-03-27T18:39:35.142Z,1.70
2023-03-27T18:42:02.611Z,5.27
2023-03-27T18:44:30.378Z,7.30
2023-03-27T18:46:57.903Z,4.30
2023-03-27T18:49:25.788Z,4.13
2023-03-27T18:51:53.375Z,4.07
2023-03-27T18:54:22.289Z,2.57
2023-03-27T18:56:49.955Z,1.50
2023-03-27T18:59:18.067Z,2.43
2023-03-27T19:01:46.062Z,2.30
2023-03-27T19:04:16.512Z,7.37
2023-03-27T19:06:46.320Z,3.03
2023-03-27T19:09:13.982Z,2.60
2023-03-27T19:11:43.984Z,2.40
2023-03-27T19:14:12.148Z,3.10
2023-03-27T19:16:39.698Z,3.50
2023-03-27T19:19:07.228Z,3.57
2023-03-27T19:21:34.682Z,2.20
2023-03-27T19:24:02.427Z,4.07
2023-03-27T19:26:30.047Z,5.57
2023-03-27T19:28:58.994Z,3.20
2023-03-27T19:31:27.310Z,4.53
2023-03-27T19:33:54.855Z,2.17
2023-03-27T19:36:24.881Z,2.00
2023-03-27T19:38:52.409Z,4.30
2023-03-27T19:41:20.577Z,2.30
2023-03-27T19:43:48.129Z,2.17
2023-03-27T19:46:17.076Z,2.57
2023-03-27T19:48:45.004Z,4.47
2023-03-27T19:51:12.542Z,6.93
2023-03-27T19:53:40.268Z,2.77
2023-03-27T19:56:10.694Z,3.40
2023-03-27T19:58:38.169Z,3.23
2023-03-27T20:01:06.809Z,4.57
2023-03-27T20:03:38.501Z,1.97
2023-03-27T20:06:13.328Z,3.07
2023-03-27T20:08:42.592Z,2.13
2023-03-27T20:11:10.100Z,1.83
2023-03-27T20:13:49.004Z,4.77
2023-03-27T20:16:24.508Z,6.50
2023-03-27T20:19:03.243Z,4.73
2023-03-27T20:21:32.432Z,3.67
2023-03-27T20:24:00.172Z,3.30
2023-03-27T20:26:28.178Z,3.33
2023-03-27T20:28:55.743Z,3.90
2023-03-27T20:31:23.399Z,4.10
2023-03-27T20:33:53.120Z,3.63
2023-03-27T20:36:23.113Z,3.13
2023-03-27T20:38:52.634Z,1.70
2023-03-27T20:41:20.523Z,4.30
2023-03-27T20:43:48.839Z,2.50
2023-03-27T20:46:16.634Z,2.93
2023-03-27T20:48:54.071Z,3.40
2023-03-27T20:51:24.975Z,4.23
2023-03-27T20:53:56.168Z,2.00
2023-03-27T20:56:24.670Z,2.70
2023-03-27T20:58:52.228Z,3.13
2023-03-27T21:01:20.412Z,6.70
2023-03-27T21:03:49.879Z,3.10
2023-03-27T21:06:19.753Z,3.17
2023-03-27T21:08:49.136Z,2.57
2023-03-27T21:11:16.591Z,1.73
2023-03-27T21:13:44.104Z,2.30
2023-03-27T21:16:13.103Z,3.17
2023-03-27T21:18:40.620Z,1.73
2023-03-27T21:21:08.514Z,5.27
2023-03-27T21:23:36.951Z,2.10
2023-03-27T21:26:08.801Z,3.13
2023-03-27T21:28:44.886Z,1.70
2023-03-27T21:31:12.475Z,1.83
2023-03-27T21:33:40.193Z,2.60
2023-03-27T21:36:12.953Z,2.10
2023-03-27T21:38:40.855Z,1.93
2023-03-27T21:41:11.452Z,1.50
2023-03-27T21:43:39.396Z,1.93
2023-03-27T21:46:09.488Z,2.67
2023-03-27T21:48:36.996Z,1.70
2023-03-27T21:51:06.201Z,2.00
2023-03-27T21:53:33.779Z,3.60
2023-03-27T21:56:01.528Z,2.17
2023-03-27T21:58:30.895Z,6.47
2023-03-27T22:00:58.752Z,1.60
2023-03-27T22:03:26.822Z,2.87
2023-03-27T22:06:10.318Z,2.70
2023-03-27T22:08:39.209Z,6.90
2023-03-27T22:11:07.187Z,4.33
2023-03-27T22:13:36.963Z,3.83
2023-03-27T22:16:08.075Z,1.67
2023-03-27T22:18:35.711Z,2.73
2023-03-27T22:21:12.348Z,2.20
2023-03-27T22:23:39.978Z,2.90
2023-03-27T22:26:07.873Z,2.13
2023-03-27T22:28:36.769Z,2.60
2023-03-27T22:31:04.632Z,1.70
2023-03-27T22:33:32.714Z,5.83
2023-03-27T22:36:00.487Z,3.27
2023-03-27T22:38:29.720Z,3.40
2023-03-27T22:40:57.394Z,2.57
2023-03-27T22:43:25.419Z,4.93
2023-03-27T22:45:54.289Z,2.10
2023-03-27T22:48:22.161Z,4.07
2023-03-27T22:50:54.269Z,2.33
2023-03-27T22:53:22.137Z,2.40
2023-03-27T22:55:49.794Z,7.37
2023-03-27T22:58:17.548Z,2.27
2023-03-27T23:00:46.837Z,3.10
2023-03-27T23:03:16.074Z,2.80
2023-03-27T23:05:44.750Z,4.83
2023-03-27T23:08:12.267Z,3.30
2023-03-27T23:10:39.967Z,6.33
2023-03-27T23:13:07.852Z,4.57
2023-03-27T23:15:35.488Z,2.40
2023-03-27T23:18:03.290Z,5.73
2023-03-27T23:20:32.389Z,4.60
2023-03-27T23:22:59.887Z,3.90
2023-03-27T23:25:27.413Z,2.00
2023-03-27T23:27:54.891Z,3.27
2023-03-27T23:30:22.435Z,5.03
2023-03-27T23:32:49.981Z,6.60
2023-03-27T23:35:17.540Z,3.00
2023-03-27T23:37:47.646Z,5.63
2023-03-27T23:40:15.641Z,5.97
2023-03-27T23:42:43.099Z,2.00
2023-03-27T23:45:11.891Z,4.07
2023-03-27T23:47:39.646Z,4.87
2023-03-27T23:50:07.771Z,3.27
2023-03-27T23:52:35.540Z,2.40
2023-03-27T23:55:04.560Z,3.33
2023-03-27T23:57:32.060Z,7.63
2023-03-27T23:59:59.568Z,2.93
